Time;durP1;ratioP1;P1;durP2;ratioP2;P2;SDS_P1;SDS_P2;PMS_P1;PMS_P2;Temp;Humidity;BMP_temperature;BMP_pressure;BME280_temperature;BME280_humidity;BME280_pressure;Samples;Min_cycle;Max_cycle;Signal;HPM_P1;HPM_P2
2021/06/06 00:06:11;;;;;;;11.73;10.33;;;22.30;71.90;;;;;;20925467;28;21167;-20
2021/06/06 00:16:13;;;;;;;;;;;22.40;72.00;;;;;;20906015;28;20594;-20
2021/06/06 00:26:14;;;;;;;15.98;11.10;;;22.30;71.90;;;;;;20892170;28;19917;-20
2021/06/06 00:36:15;;;;;;;12.67;11.37;;;22.30;72.00;;;;;;20893296;28;20992;-20
2021/06/06 00:46:19;;;;;;;11.88;10.63;;;22.30;71.90;;;;;;20904814;28;20590;-20
2021/06/06 00:56:23;;;;;;;19.23;14.18;;;22.30;72.00;;;;;;20905039;28;20112;-20
2021/06/06 01:06:32;;;;;;;15.27;13.73;;;22.30;72.00;;;;;;20886570;28;20029;-20
2021/06/06 01:16:43;;;;;;;15.48;13.68;;;22.30;72.00;;;;;;20894703;28;20032;-20
2021/06/06 01:27:03;;;;;;;15.70;14.07;;;22.30;72.40;;;;;;20894189;28;20029;-20
2021/06/06 01:37:08;;;;;;;15.88;13.75;;;22.30;71.90;;;;;;20905040;28;20039;-20
2021/06/06 01:47:15;;;;;;;20.40;13.93;;;22.20;71.80;;;;;;20900655;28;20029;-20
2021/06/06 01:57:20;;;;;;;15.77;14.15;;;22.20;71.70;;;;;;20882990;28;20025;-20
2021/06/06 02:07:28;;;;;;;16.42;13.77;;;22.20;71.70;;;;;;20885078;28;20029;-20
2021/06/06 02:17:30;;;;;;;16.48;14.05;;;22.20;71.60;;;;;;20889824;28;20036;-20
2021/06/06 02:27:40;;;;;;;19.90;15.27;;;22.20;71.90;;;;;;20889482;28;20055;-20
2021/06/06 02:37:55;;;;;;;18.20;15.25;;;22.20;72.00;;;;;;20892521;28;20035;-20
2021/06/06 02:48:27;;;;;;;18.15;15.23;;;22.20;71.70;;;;;;20906542;28;20497;-20
2021/06/06 02:58:54;;;;;;;21.23;16.33;;;22.20;71.80;;;;;;20567663;28;20434;-20
2021/06/06 03:08:55;;;;;;;20.02;16.40;;;22.20;71.70;;;;;;20563069;28;20098;-20
2021/06/06 03:18:56;;;;;;;18.20;15.75;;;22.20;71.80;;;;;;20567612;28;20141;-20
2021/06/06 03:29:01;;;;;;;20.63;18.42;;;22.10;71.70;;;;;;20641930;28;20409;-20
2021/06/06 03:39:11;;;;;;;24.00;19.23;;;22.10;71.60;;;;;;20894682;28;20056;-20
2021/06/06 03:49:12;;;;;;;25.75;19.25;;;22.10;71.40;;;;;;20892637;28;20039;-20
2021/06/06 03:59:14;;;;;;;26.77;20.20;;;22.10;71.30;;;;;;20890208;28;20380;-20
2021/06/06 04:09:15;;;;;;;23.80;18.83;;;22.10;70.90;;;;;;20887963;28;20036;-20
2021/06/06 04:19:15;;;;;;;23.38;20.63;;;22.10;70.90;;;;;;20897962;28;20039;-20
2021/06/06 04:29:16;;;;;;;26.27;20.58;;;22.10;70.70;;;;;;20899182;28;20042;-20
2021/06/06 04:39:17;;;;;;;25.40;19.75;;;22.10;70.70;;;;;;20908725;28;20044;-20
2021/06/06 04:49:17;;;;;;;22.33;19.92;;;22.00;70.30;;;;;;20905971;28;20055;-20
2021/06/06 04:59:18;;;;;;;25.48;21.83;;;22.00;70.30;;;;;;20903895;28;20432;-20
2021/06/06 05:09:18;;;;;;;23.95;19.67;;;22.00;70.20;;;;;;20900678;28;20546;-20
2021/06/06 05:19:19;;;;;;;21.73;19.45;;;22.00;70.20;;;;;;20893703;28;20415;-20
2021/06/06 05:29:21;;;;;;;24.27;17.73;;;22.00;70.10;;;;;;20904415;28;20432;-20
2021/06/06 05:39:22;;;;;;;22.65;17.50;;;22.10;69.80;;;;;;20904154;28;20103;-20
2021/06/06 05:49:22;;;;;;;23.67;19.15;;;22.10;69.90;;;;;;20889730;28;20060;-20
2021/06/06 05:59:23;;;;;;;21.70;18.35;;;22.00;69.70;;;;;;20889878;28;20465;-20
2021/06/06 06:09:24;;;;;;;20.50;16.70;;;22.10;69.80;;;;;;20887997;28;20060;-19
2021/06/06 06:19:24;;;;;;;30.38;17.17;;;22.20;70.00;;;;;;20885696;28;21104;-20
2021/06/06 06:29:25;;;;;;;19.80;16.15;;;22.20;69.80;;;;;;20886199;28;20040;-20
2021/06/06 06:39:26;;;;;;;20.95;16.05;;;22.20;69.60;;;;;;20873760;28;20025;-21
2021/06/06 06:49:28;;;;;;;24.42;16.60;;;22.20;69.20;;;;;;20881393;28;20037;-21
2021/06/06 06:59:28;;;;;;;29.10;17.67;;;22.20;69.30;;;;;;20876950;28;20403;-21
2021/06/06 07:09:29;;;;;;;34.43;18.90;;;22.20;69.00;;;;;;20891556;28;20037;-20
2021/06/06 07:19:29;;;;;;;25.90;16.13;;;22.10;68.50;;;;;;20886905;28;20087;-21
2021/06/06 07:29:32;;;;;;;21.70;14.77;;;22.10;68.40;;;;;;20903154;28;20061;-21
2021/06/06 07:39:33;;;;;;;18.88;14.05;;;22.10;68.50;;;;;;20885637;28;20072;-21
2021/06/06 07:49:36;;;;;;;19.38;13.82;;;22.20;68.20;;;;;;20866338;28;20036;-21
2021/06/06 07:59:37;;;;;;;26.20;12.85;;;22.20;67.60;;;;;;20909017;28;20044;-20
2021/06/06 08:09:37;;;;;;;18.70;10.65;;;22.20;67.70;;;;;;20897853;28;20116;-19
2021/06/06 08:19:38;;;;;;;13.57;9.77;;;22.20;67.60;;;;;;20909953;28;20044;-20
2021/06/06 08:29:41;;;;;;;18.58;14.60;;;22.10;67.30;;;;;;20907558;28;20102;-20
2021/06/06 08:39:41;;;;;;;17.75;15.05;;;22.10;67.00;;;;;;20891601;28;20037;-20
2021/06/06 08:49:46;;;;;;;18.88;11.80;;;22.10;66.70;;;;;;20901123;28;20123;-20
2021/06/06 08:59:54;;;;;;;16.13;11.45;;;22.10;66.50;;;;;;20901407;28;20098;-20
2021/06/06 09:09:59;;;;;;;9.80;8.80;;;22.10;66.70;;;;;;20913342;28;20029;-20
2021/06/06 09:20:00;;;;;;;13.90;9.90;;;22.10;66.90;;;;;;20911326;28;20029;-20
2021/06/06 09:30:17;;;;;;;10.45;8.57;;;22.10;66.80;;;;;;20874673;28;20048;-20
2021/06/06 09:40:48;;;;;;;15.50;8.48;;;22.10;67.00;;;;;;20872218;28;20036;-20
2021/06/06 09:50:51;;;;;;;10.07;7.25;;;22.10;67.00;;;;;;20725170;28;20048;-21
2021/06/06 10:00:54;;;;;;;42.97;9.80;;;22.10;66.90;;;;;;20728352;28;20054;-21
2021/06/06 10:11:12;;;;;;;14.48;9.35;;;22.20;67.10;;;;;;20724280;28;20049;-21
2021/06/06 10:21:20;;;;;;;60.40;11.45;;;22.20;67.20;;;;;;20755610;28;20063;-20
2021/06/06 10:31:29;;;;;;;;;;;22.30;67.30;;;;;;20880815;28;20027;-20
2021/06/06 10:41:51;;;;;;;22.75;9.93;;;22.30;67.00;;;;;;20884008;28;19914;-20
2021/06/06 10:52:00;;;;;;;20.00;8.82;;;22.20;66.70;;;;;;20899551;28;20086;-19
2021/06/06 11:02:02;;;;;;;21.05;9.75;;;22.30;66.60;;;;;;20902224;28;20033;-21
2021/06/06 11:12:23;;;;;;;21.90;8.95;;;22.30;66.60;;;;;;20893317;28;20039;-19
2021/06/06 11:22:35;;;;;;;25.67;8.48;;;22.30;66.60;;;;;;20881324;28;20039;-20
2021/06/06 11:32:54;;;;;;;20.75;8.38;;;22.30;66.60;;;;;;20885978;28;20044;-19
2021/06/06 11:43:13;;;;;;;13.95;7.45;;;22.30;66.40;;;;;;20894868;28;20103;-21
2021/06/06 11:53:25;;;;;;;12.65;7.22;;;22.30;66.20;;;;;;20903253;28;20480;-20
2021/06/06 12:03:38;;;;;;;18.10;7.70;;;22.30;66.10;;;;;;20896298;28;20064;-20
2021/06/06 12:13:40;;;;;;;12.30;8.10;;;22.30;66.40;;;;;;20882451;28;20033;-20
2021/06/06 12:23:45;;;;;;;35.53;9.23;;;22.30;66.40;;;;;;20898938;28;20116;-19
2021/06/06 12:33:46;;;;;;;12.90;8.20;;;22.30;66.50;;;;;;20903048;28;20108;-21
2021/06/06 12:43:53;;;;;;;23.70;11.35;;;22.30;66.30;;;;;;20911446;28;20067;-21
2021/06/06 12:54:13;;;;;;;27.83;14.20;;;22.20;65.90;;;;;;20914478;28;20439;-21
2021/06/06 13:04:22;;;;;;;17.27;11.70;;;22.10;65.60;;;;;;20916275;28;20050;-20
2021/06/06 13:14:37;;;;;;;17.40;11.82;;;22.10;65.60;;;;;;20911269;28;20440;-20
2021/06/06 13:24:43;;;;;;;19.80;11.93;;;22.00;65.60;;;;;;20915524;28;20021;-20
2021/06/06 13:34:51;;;;;;;15.45;10.35;;;22.00;65.30;;;;;;20913426;28;20485;-21
2021/06/06 13:44:52;;;;;;;25.45;11.07;;;22.00;65.50;;;;;;20914891;28;20478;-20
2021/06/06 13:54:53;;;;;;;21.10;11.77;;;22.00;65.80;;;;;;20909599;28;20047;-20
2021/06/06 14:04:54;;;;;;;22.38;11.75;;;22.00;65.80;;;;;;20910337;28;20382;-20
2021/06/06 14:14:54;;;;;;;15.48;9.77;;;22.00;65.80;;;;;;20910453;28;20123;-19
2021/06/06 14:24:55;;;;;;;17.55;11.00;;;22.00;65.90;;;;;;20903968;28;20555;-19
2021/06/06 14:34:55;;;;;;;14.73;10.13;;;22.00;65.90;;;;;;20908817;28;20554;-20
2021/06/06 14:44:56;;;;;;;12.88;9.50;;;22.00;66.00;;;;;;20907992;28;20037;-20
2021/06/06 14:54:56;;;;;;;12.57;11.07;;;22.00;66.10;;;;;;20906127;28;20064;-20
2021/06/06 15:04:57;;;;;;;16.65;9.70;;;22.00;66.10;;;;;;20905500;28;20036;-20
2021/06/06 15:14:57;;;;;;;14.30;10.13;;;22.00;66.10;;;;;;20903678;28;20036;-20
2021/06/06 15:24:58;;;;;;;9.90;8.90;;;22.00;66.10;;;;;;20904603;28;20113;-20
2021/06/06 15:34:59;;;;;;;12.07;9.90;;;22.00;66.10;;;;;;20890836;28;20438;-20
2021/06/06 15:44:59;;;;;;;13.38;9.23;;;22.00;66.20;;;;;;20904296;28;20470;-20
2021/06/06 15:55:00;;;;;;;12.20;9.33;;;22.00;66.20;;;;;;20907967;28;20033;-20
2021/06/06 16:05:00;;;;;;;11.00;9.50;;;22.00;66.20;;;;;;20912713;28;20478;-21
2021/06/06 16:15:01;;;;;;;12.02;8.80;;;22.00;66.20;;;;;;20931964;28;20051;-20
2021/06/06 16:25:04;;;;;;;12.18;9.45;;;22.00;66.20;;;;;;20931573;28;20025;-20
2021/06/06 16:35:06;;;;;;;12.00;8.55;;;22.00;66.20;;;;;;20922648;28;20525;-20
2021/06/06 16:45:09;;;;;;;10.88;8.88;;;22.00;66.20;;;;;;20906995;28;20068;-20
2021/06/06 16:55:18;;;;;;;11.07;9.65;;;22.00;66.20;;;;;;20916315;28;20045;-20
2021/06/06 17:05:21;;;;;;;11.15;8.15;;;22.00;66.40;;;;;;20916353;28;20128;-20
2021/06/06 17:15:38;;;;;;;8.93;8.00;;;21.90;66.30;;;;;;20915521;28;20037;-19
2021/06/06 17:25:39;;;;;;;31.95;12.23;;;22.00;66.30;;;;;;20910692;28;20032;-19
2021/06/06 17:35:45;;;;;;;39.30;12.98;;;22.00;66.40;;;;;;20895382;28;20063;-21
2021/06/06 17:45:45;;;;;;;26.65;12.60;;;22.00;66.50;;;;;;20910568;28;20037;-21
2021/06/06 17:55:50;;;;;;;28.60;12.93;;;22.00;66.50;;;;;;20911022;28;20110;-20
2021/06/06 18:05:50;;;;;;;28.88;12.63;;;22.00;66.80;;;;;;20912816;28;20025;-21
2021/06/06 18:15:52;;;;;;;22.50;13.23;;;22.00;67.00;;;;;;20909261;28;20460;-20
2021/06/06 18:25:54;;;;;;;23.42;11.57;;;22.00;66.80;;;;;;20909018;28;20482;-20
2021/06/06 18:35:55;;;;;;;17.17;10.65;;;22.00;66.60;;;;;;20906272;28;20498;-21
2021/06/06 18:45:56;;;;;;;17.83;12.00;;;22.00;66.50;;;;;;20904388;28;20021;-20
2021/06/06 18:56:00;;;;;;;17.30;9.88;;;22.10;66.60;;;;;;20906132;28;20519;-20
2021/06/06 19:06:07;;;;;;;27.50;11.93;;;22.00;66.60;;;;;;20891019;28;20029;-20
2021/06/06 19:16:08;;;;;;;18.63;11.13;;;22.00;66.50;;;;;;20905015;28;20507;-21
2021/06/06 19:26:12;;;;;;;20.30;11.85;;;22.00;66.60;;;;;;20903914;28;20024;-20
2021/06/06 19:36:13;;;;;;;18.48;9.98;;;21.90;66.80;;;;;;20902984;28;20061;-20
2021/06/06 19:46:19;;;;;;;22.38;10.07;;;21.90;67.30;;;;;;20901798;28;20045;-20
2021/06/06 19:56:38;;;;;;;17.63;9.38;;;21.90;67.70;;;;;;20867567;28;20044;-20
2021/06/06 20:06:39;;;;;;;18.23;10.32;;;22.00;68.10;;;;;;20901946;28;20029;-20
2021/06/06 20:16:40;;;;;;;20.40;10.25;;;22.00;68.10;;;;;;20901011;28;20127;-24
2021/06/06 20:26:41;;;;;;;14.70;9.02;;;22.00;68.10;;;;;;20901986;28;20087;-21
2021/06/06 20:36:48;;;;;;;20.00;10.40;;;22.00;68.10;;;;;;20899470;28;20029;-21
2021/06/06 20:46:49;;;;;;;16.07;9.47;;;22.00;68.10;;;;;;20898363;28;20129;-20
2021/06/06 20:56:49;;;;;;;19.23;9.65;;;22.00;68.10;;;;;;20906752;28;20028;-21
2021/06/06 21:06:50;;;;;;;11.43;8.73;;;22.00;68.10;;;;;;20913097;28;20025;-20
2021/06/06 21:16:50;;;;;;;13.45;8.77;;;22.00;68.10;;;;;;20834661;28;20417;-20
2021/06/06 21:26:51;;;;;;;14.40;10.52;;;22.00;67.90;;;;;;20849544;28;20036;-20
2021/06/06 21:36:52;;;;;;;15.60;8.90;;;22.10;68.20;;;;;;20912471;28;20053;-20
2021/06/06 21:46:53;;;;;;;20.65;9.13;;;22.10;68.10;;;;;;20910477;28;20836;-20
2021/06/06 21:56:53;;;;;;;11.63;8.32;;;22.10;67.80;;;;;;20909139;28;20106;-20
2021/06/06 22:06:55;;;;;;;13.70;10.10;;;22.00;67.30;;;;;;20907950;28;20029;-20
2021/06/06 22:16:57;;;;;;;14.50;12.05;;;22.00;67.30;;;;;;20907494;28;20083;-20
2021/06/06 22:27:35;;;;;;;17.65;11.77;;;21.90;66.60;;;;;;20907116;28;20028;-20
2021/06/06 22:38:13;;;;;;;18.52;11.80;;;21.90;66.50;;;;;;20905532;28;20032;-20
2021/06/06 22:48:51;;;;;;;18.52;12.85;;;21.80;66.30;;;;;;20911745;28;20029;-20
2021/06/06 22:59:29;;;;;;;14.88;10.82;;;21.80;65.90;;;;;;20906451;28;20029;-20
2021/06/06 23:10:06;;;;;;;16.30;12.15;;;21.70;65.80;;;;;;20906231;28;20033;-20
2021/06/06 23:20:07;;;;;;;12.73;11.32;;;21.70;65.40;;;;;;20904114;28;20074;-20
2021/06/06 23:30:14;;;;;;;12.70;11.52;;;21.70;65.20;;;;;;20903946;28;20025;-20
2021/06/06 23:40:15;;;;;;;15.95;11.07;;;21.60;64.70;;;;;;20904022;28;20051;-20
2021/06/06 23:50:16;;;;;;;12.27;10.88;;;21.60;64.60;;;;;;20903615;28;20025;-20
